sensor_id;sensor_type;location;lat;lon;timestamp;P1;durP1;ratioP1;P2;durP2;ratioP2
3573;SDS011;1801;51.050;6.246;2023-03-05T00:01:05;1.47;;;1.27;;
3573;SDS011;1801;51.050;6.246;2023-03-05T00:03:31;2.97;;;0.73;;
3573;SDS011;1801;51.050;6.246;2023-03-05T00:05:56;5.57;;;1.30;;
3573;SDS011;1801;51.050;6.246;2023-03-05T00:08:21;2.77;;;0.97;;
3573;SDS011;1801;51.050;6.246;2023-03-05T00:10:53;6.93;;;1.10;;
3573;SDS011;1801;51.050;6.246;2023-03-05T00:13:19;5.18;;;0.82;;
3573;SDS011;1801;51.050;6.246;2023-03-05T00:15:44;1.80;;;0.60;;
3573;SDS011;1801;51.050;6.246;2023-03-05T00:18:09;4.27;;;0.90;;
3573;SDS011;1801;51.050;6.246;2023-03-05T00:20:34;5.67;;;1.00;;
3573;SDS011;1801;51.050;6.246;2023-03-05T00:23:00;7.40;;;1.07;;
3573;SDS011;1801;51.050;6.246;2023-03-05T00:25:26;3.10;;;1.23;;
3573;SDS011;1801;51.050;6.246;2023-03-05T00:27:51;2.87;;;1.00;;
3573;SDS011;1801;51.050;6.246;2023-03-05T00:30:16;2.90;;;1.00;;
3573;SDS011;1801;51.050;6.246;2023-03-05T00:32:41;4.83;;;0.97;;
3573;SDS011;1801;51.050;6.246;2023-03-05T00:35:06;2.97;;;1.00;;
3573;SDS011;1801;51.050;6.246;2023-03-05T00:37:32;8.37;;;1.17;;
3573;SDS011;1801;51.050;6.246;2023-03-05T00:39:57;4.63;;;1.13;;
3573;SDS011;1801;51.050;6.246;2023-03-05T00:42:22;7.60;;;2.27;;
3573;SDS011;1801;51.050;6.246;2023-03-05T00:44:48;4.60;;;1.23;;
3573;SDS011;1801;51.050;6.246;2023-03-05T00:47:13;2.83;;;1.17;;
3573;SDS011;1801;51.050;6.246;2023-03-05T00:49:40;5.93;;;1.50;;
3573;SDS011;1801;51.050;6.246;2023-03-05T00:52:05;4.10;;;2.20;;
3573;SDS011;1801;51.050;6.246;2023-03-05T00:54:31;3.87;;;1.30;;
3573;SDS011;1801;51.050;6.246;2023-03-05T00:56:56;2.90;;;1.03;;
3573;SDS011;1801;51.050;6.246;2023-03-05T00:59:21;4.20;;;1.20;;
3573;SDS011;1801;51.050;6.246;2023-03-05T01:01:46;2.87;;;1.40;;
3573;SDS011;1801;51.050;6.246;2023-03-05T01:04:11;14.60;;;1.97;;
3573;SDS011;1801;51.050;6.246;2023-03-05T01:06:37;10.33;;;1.20;;
3573;SDS011;1801;51.050;6.246;2023-03-05T01:09:06;7.65;;;1.92;;
3573;SDS011;1801;51.050;6.246;2023-03-05T01:11:31;7.43;;;1.53;;
3573;SDS011;1801;51.050;6.246;2023-03-05T01:13:57;6.70;;;1.23;;
3573;SDS011;1801;51.050;6.246;2023-03-05T01:16:22;4.57;;;1.90;;
3573;SDS011;1801;51.050;6.246;2023-03-05T01:18:47;10.60;;;3.10;;
3573;SDS011;1801;51.050;6.246;2023-03-05T01:21:12;8.80;;;2.27;;
3573;SDS011;1801;51.050;6.246;2023-03-05T01:23:37;5.27;;;2.40;;
3573;SDS011;1801;51.050;6.246;2023-03-05T01:26:03;8.90;;;2.03;;
3573;SDS011;1801;51.050;6.246;2023-03-05T01:28:28;11.50;;;2.33;;
3573;SDS011;1801;51.050;6.246;2023-03-05T01:30:53;17.60;;;3.13;;
3573;SDS011;1801;51.050;6.246;2023-03-05T01:33:18;8.27;;;1.77;;
3573;SDS011;1801;51.050;6.246;2023-03-05T01:35:47;2.20;;;1.00;;
3573;SDS011;1801;51.050;6.246;2023-03-05T01:38:12;3.25;;;1.45;;
3573;SDS011;1801;51.050;6.246;2023-03-05T01:40:38;5.40;;;1.43;;
3573;SDS011;1801;51.050;6.246;2023-03-05T01:45:34;3.67;;;1.42;;
3573;SDS011;1801;51.050;6.246;2023-03-05T01:47:59;6.83;;;1.23;;
3573;SDS011;1801;51.050;6.246;2023-03-05T01:50:25;2.13;;;1.20;;
3573;SDS011;1801;51.050;6.246;2023-03-05T01:53:00;11.23;;;2.58;;
3573;SDS011;1801;51.050;6.246;2023-03-05T01:55:27;7.25;;;1.20;;
3573;SDS011;1801;51.050;6.246;2023-03-05T01:57:56;9.52;;;1.55;;
3573;SDS011;1801;51.050;6.246;2023-03-05T02:00:24;1.25;;;0.93;;
3573;SDS011;1801;51.050;6.246;2023-03-05T02:02:50;10.38;;;1.63;;
3573;SDS011;1801;51.050;6.246;2023-03-05T02:05:17;7.60;;;1.27;;
3573;SDS011;1801;51.050;6.246;2023-03-05T02:07:43;6.03;;;1.52;;
3573;SDS011;1801;51.050;6.246;2023-03-05T02:12:40;4.28;;;1.90;;
3573;SDS011;1801;51.050;6.246;2023-03-05T02:15:06;3.63;;;1.70;;
3573;SDS011;1801;51.050;6.246;2023-03-05T02:17:31;7.20;;;1.83;;
3573;SDS011;1801;51.050;6.246;2023-03-05T02:20:02;5.30;;;2.00;;
3573;SDS011;1801;51.050;6.246;2023-03-05T02:22:28;7.82;;;2.13;;
3573;SDS011;1801;51.050;6.246;2023-03-05T02:24:53;10.53;;;2.43;;
3573;SDS011;1801;51.050;6.246;2023-03-05T02:27:20;10.57;;;1.97;;
3573;SDS011;1801;51.050;6.246;2023-03-05T02:29:46;12.65;;;3.17;;
3573;SDS011;1801;51.050;6.246;2023-03-05T02:32:12;6.40;;;2.10;;
3573;SDS011;1801;51.050;6.246;2023-03-05T02:34:37;5.53;;;2.40;;
3573;SDS011;1801;51.050;6.246;2023-03-05T02:37:03;15.33;;;1.77;;
3573;SDS011;1801;51.050;6.246;2023-03-05T02:39:29;10.43;;;2.90;;
3573;SDS011;1801;51.050;6.246;2023-03-05T02:41:55;6.32;;;1.40;;
3573;SDS011;1801;51.050;6.246;2023-03-05T02:44:20;8.60;;;1.50;;
3573;SDS011;1801;51.050;6.246;2023-03-05T02:46:45;9.23;;;1.63;;
3573;SDS011;1801;51.050;6.246;2023-03-05T02:49:11;20.03;;;1.97;;
3573;SDS011;1801;51.050;6.246;2023-03-05T02:51:36;4.53;;;2.57;;
3573;SDS011;1801;51.050;6.246;2023-03-05T02:54:01;4.40;;;1.40;;
3573;SDS011;1801;51.050;6.246;2023-03-05T02:56:26;6.03;;;2.53;;
3573;SDS011;1801;51.050;6.246;2023-03-05T02:58:51;13.20;;;1.57;;
3573;SDS011;1801;51.050;6.246;2023-03-05T03:01:16;10.77;;;2.40;;
3573;SDS011;1801;51.050;6.246;2023-03-05T03:03:42;9.00;;;1.90;;
3573;SDS011;1801;51.050;6.246;2023-03-05T03:06:07;3.97;;;2.60;;
3573;SDS011;1801;51.050;6.246;2023-03-05T03:08:32;8.13;;;1.80;;
3573;SDS011;1801;51.050;6.246;2023-03-05T03:11:03;9.47;;;2.20;;
3573;SDS011;1801;51.050;6.246;2023-03-05T03:13:28;6.68;;;2.30;;
3573;SDS011;1801;51.050;6.246;2023-03-05T03:16:03;5.70;;;2.37;;
3573;SDS011;1801;51.050;6.246;2023-03-05T03:18:28;11.23;;;2.20;;
3573;SDS011;1801;51.050;6.246;2023-03-05T03:20:53;13.60;;;2.00;;
3573;SDS011;1801;51.050;6.246;2023-03-05T03:23:19;8.87;;;2.53;;
3573;SDS011;1801;51.050;6.246;2023-03-05T03:25:44;9.00;;;3.10;;
3573;SDS011;1801;51.050;6.246;2023-03-05T03:28:09;6.20;;;2.10;;
3573;SDS011;1801;51.050;6.246;2023-03-05T03:30:34;7.37;;;2.90;;
3573;SDS011;1801;51.050;6.246;2023-03-05T03:32:59;10.23;;;3.00;;
3573;SDS011;1801;51.050;6.246;2023-03-05T03:35:24;13.70;;;3.70;;
3573;SDS011;1801;51.050;6.246;2023-03-05T03:37:50;9.87;;;2.40;;
3573;SDS011;1801;51.050;6.246;2023-03-05T03:40:15;4.87;;;1.80;;
3573;SDS011;1801;51.050;6.246;2023-03-05T03:42:40;5.07;;;1.80;;
3573;SDS011;1801;51.050;6.246;2023-03-05T03:45:05;7.13;;;1.73;;
3573;SDS011;1801;51.050;6.246;2023-03-05T03:47:31;14.67;;;3.50;;
3573;SDS011;1801;51.050;6.246;2023-03-05T03:49:56;18.73;;;3.60;;
3573;SDS011;1801;51.050;6.246;2023-03-05T03:52:22;7.93;;;3.08;;
3573;SDS011;1801;51.050;6.246;2023-03-05T03:54:48;10.67;;;2.37;;
3573;SDS011;1801;51.050;6.246;2023-03-05T03:57:14;8.77;;;2.78;;
3573;SDS011;1801;51.050;6.246;2023-03-05T03:59:39;5.60;;;2.63;;
3573;SDS011;1801;51.050;6.246;2023-03-05T04:02:04;17.30;;;3.90;;
3573;SDS011;1801;51.050;6.246;2023-03-05T04:04:29;19.17;;;2.30;;
3573;SDS011;1801;51.050;6.246;2023-03-05T04:06:55;11.00;;;2.47;;
3573;SDS011;1801;51.050;6.246;2023-03-05T04:09:20;11.20;;;2.27;;
3573;SDS011;1801;51.050;6.246;2023-03-05T04:11:45;11.83;;;2.50;;
3573;SDS011;1801;51.050;6.246;2023-03-05T04:14:11;8.13;;;2.80;;
3573;SDS011;1801;51.050;6.246;2023-03-05T04:16:36;8.80;;;2.87;;
3573;SDS011;1801;51.050;6.246;2023-03-05T04:19:01;4.00;;;2.63;;
3573;SDS011;1801;51.050;6.246;2023-03-05T04:21:26;10.40;;;2.73;;
3573;SDS011;1801;51.050;6.246;2023-03-05T04:23:51;17.43;;;2.43;;
3573;SDS011;1801;51.050;6.246;2023-03-05T04:26:16;7.83;;;2.70;;
3573;SDS011;1801;51.050;6.246;2023-03-05T04:28:42;10.77;;;2.63;;
3573;SDS011;1801;51.050;6.246;2023-03-05T04:31:07;7.87;;;2.80;;
3573;SDS011;1801;51.050;6.246;2023-03-05T04:33:32;9.27;;;2.90;;
3573;SDS011;1801;51.050;6.246;2023-03-05T04:35:58;20.90;;;2.83;;
3573;SDS011;1801;51.050;6.246;2023-03-05T04:38:23;7.30;;;2.47;;
3573;SDS011;1801;51.050;6.246;2023-03-05T04:40:48;16.70;;;3.43;;
3573;SDS011;1801;51.050;6.246;2023-03-05T04:43:13;11.17;;;2.40;;
3573;SDS011;1801;51.050;6.246;2023-03-05T04:45:39;12.70;;;2.33;;
3573;SDS011;1801;51.050;6.246;2023-03-05T04:48:04;13.07;;;2.50;;
3573;SDS011;1801;51.050;6.246;2023-03-05T04:50:29;9.67;;;2.70;;
3573;SDS011;1801;51.050;6.246;2023-03-05T04:52:54;8.73;;;2.80;;
3573;SDS011;1801;51.050;6.246;2023-03-05T04:55:20;9.77;;;3.77;;
3573;SDS011;1801;51.050;6.246;2023-03-05T04:57:45;11.17;;;2.47;;
3573;SDS011;1801;51.050;6.246;2023-03-05T05:00:11;16.37;;;3.50;;
3573;SDS011;1801;51.050;6.246;2023-03-05T05:02:40;11.02;;;3.15;;
3573;SDS011;1801;51.050;6.246;2023-03-05T05:05:06;12.90;;;5.15;;
3573;SDS011;1801;51.050;6.246;2023-03-05T05:07:31;13.50;;;5.00;;
3573;SDS011;1801;51.050;6.246;2023-03-05T05:09:57;9.67;;;3.10;;
3573;SDS011;1801;51.050;6.246;2023-03-05T05:12:22;5.10;;;2.00;;
3573;SDS011;1801;51.050;6.246;2023-03-05T05:14:47;17.43;;;3.10;;
3573;SDS011;1801;51.050;6.246;2023-03-05T05:17:13;13.53;;;2.50;;
3573;SDS011;1801;51.050;6.246;2023-03-05T05:19:38;16.87;;;2.80;;
3573;SDS011;1801;51.050;6.246;2023-03-05T05:22:03;10.23;;;2.67;;
3573;SDS011;1801;51.050;6.246;2023-03-05T05:24:28;6.23;;;2.83;;
3573;SDS011;1801;51.050;6.246;2023-03-05T05:26:54;6.93;;;2.93;;
3573;SDS011;1801;51.050;6.246;2023-03-05T05:29:19;16.23;;;3.10;;
3573;SDS011;1801;51.050;6.246;2023-03-05T05:31:45;7.90;;;1.90;;
3573;SDS011;1801;51.050;6.246;2023-03-05T05:34:10;8.47;;;2.20;;
3573;SDS011;1801;51.050;6.246;2023-03-05T05:36:35;3.17;;;1.90;;
3573;SDS011;1801;51.050;6.246;2023-03-05T05:39:00;5.33;;;2.07;;
3573;SDS011;1801;51.050;6.246;2023-03-05T05:41:26;8.47;;;3.23;;
3573;SDS011;1801;51.050;6.246;2023-03-05T05:43:51;9.73;;;3.23;;
3573;SDS011;1801;51.050;6.246;2023-03-05T05:46:17;6.80;;;2.57;;
3573;SDS011;1801;51.050;6.246;2023-03-05T05:48:43;10.70;;;2.80;;
3573;SDS011;1801;51.050;6.246;2023-03-05T05:51:09;8.70;;;2.70;;
3573;SDS011;1801;51.050;6.246;2023-03-05T05:53:35;19.73;;;2.85;;
3573;SDS011;1801;51.050;6.246;2023-03-05T05:56:02;6.50;;;2.37;;
3573;SDS011;1801;51.050;6.246;2023-03-05T05:58:28;5.00;;;2.08;;
3573;SDS011;1801;51.050;6.246;2023-03-05T06:00:53;15.23;;;4.13;;
3573;SDS011;1801;51.050;6.246;2023-03-05T06:03:18;10.37;;;2.73;;
3573;SDS011;1801;51.050;6.246;2023-03-05T06:05:43;3.27;;;2.33;;
3573;SDS011;1801;51.050;6.246;2023-03-05T06:08:09;5.50;;;2.13;;
3573;SDS011;1801;51.050;6.246;2023-03-05T06:10:34;5.23;;;2.10;;
3573;SDS011;1801;51.050;6.246;2023-03-05T06:12:59;2.93;;;1.80;;
3573;SDS011;1801;51.050;6.246;2023-03-05T06:15:24;5.23;;;2.30;;
3573;SDS011;1801;51.050;6.246;2023-03-05T06:17:50;4.43;;;1.93;;
3573;SDS011;1801;51.050;6.246;2023-03-05T06:20:15;6.73;;;2.20;;
3573;SDS011;1801;51.050;6.246;2023-03-05T06:22:40;7.27;;;3.50;;
3573;SDS011;1801;51.050;6.246;2023-03-05T06:25:06;5.50;;;2.53;;
3573;SDS011;1801;51.050;6.246;2023-03-05T06:27:33;3.63;;;1.90;;
3573;SDS011;1801;51.050;6.246;2023-03-05T06:29:58;6.35;;;2.80;;
3573;SDS011;1801;51.050;6.246;2023-03-05T06:32:23;10.07;;;2.87;;
3573;SDS011;1801;51.050;6.246;2023-03-05T06:34:48;10.83;;;2.50;;
3573;SDS011;1801;51.050;6.246;2023-03-05T06:37:14;6.00;;;2.33;;
3573;SDS011;1801;51.050;6.246;2023-03-05T06:39:39;13.43;;;3.57;;
3573;SDS011;1801;51.050;6.246;2023-03-05T06:42:04;7.13;;;3.30;;
3573;SDS011;1801;51.050;6.246;2023-03-05T06:44:29;5.40;;;3.13;;
3573;SDS011;1801;51.050;6.246;2023-03-05T06:46:54;7.90;;;3.30;;
3573;SDS011;1801;51.050;6.246;2023-03-05T06:49:20;8.87;;;2.90;;
3573;SDS011;1801;51.050;6.246;2023-03-05T06:51:45;15.03;;;3.50;;
3573;SDS011;1801;51.050;6.246;2023-03-05T06:54:12;13.13;;;3.67;;
3573;SDS011;1801;51.050;6.246;2023-03-05T06:56:38;9.00;;;2.95;;
3573;SDS011;1801;51.050;6.246;2023-03-05T06:59:04;8.70;;;3.37;;
3573;SDS011;1801;51.050;6.246;2023-03-05T07:01:29;12.40;;;4.80;;
3573;SDS011;1801;51.050;6.246;2023-03-05T07:03:54;15.43;;;4.50;;
3573;SDS011;1801;51.050;6.246;2023-03-05T07:06:22;8.20;;;3.50;;
3573;SDS011;1801;51.050;6.246;2023-03-05T07:08:48;22.67;;;4.40;;
3573;SDS011;1801;51.050;6.246;2023-03-05T07:11:17;23.13;;;3.83;;
3573;SDS011;1801;51.050;6.246;2023-03-05T07:13:43;6.88;;;3.72;;
3573;SDS011;1801;51.050;6.246;2023-03-05T07:16:12;9.93;;;3.30;;
3573;SDS011;1801;51.050;6.246;2023-03-05T07:18:38;11.35;;;3.85;;
3573;SDS011;1801;51.050;6.246;2023-03-05T07:21:04;7.40;;;3.80;;
3573;SDS011;1801;51.050;6.246;2023-03-05T07:23:29;9.77;;;3.58;;
3573;SDS011;1801;51.050;6.246;2023-03-05T07:25:54;14.30;;;4.87;;
3573;SDS011;1801;51.050;6.246;2023-03-05T07:28:20;12.43;;;5.53;;
3573;SDS011;1801;51.050;6.246;2023-03-05T07:30:53;9.40;;;4.17;;
3573;SDS011;1801;51.050;6.246;2023-03-05T07:33:18;15.52;;;3.55;;
3573;SDS011;1801;51.050;6.246;2023-03-05T07:35:43;11.27;;;3.80;;
3573;SDS011;1801;51.050;6.246;2023-03-05T07:38:08;8.93;;;4.27;;
3573;SDS011;1801;51.050;6.246;2023-03-05T07:40:33;6.53;;;3.27;;
3573;SDS011;1801;51.050;6.246;2023-03-05T07:42:58;8.90;;;3.83;;
3573;SDS011;1801;51.050;6.246;2023-03-05T07:45:24;9.00;;;3.93;;
3573;SDS011;1801;51.050;6.246;2023-03-05T07:47:49;16.07;;;4.30;;
3573;SDS011;1801;51.050;6.246;2023-03-05T07:50:14;15.97;;;5.00;;
3573;SDS011;1801;51.050;6.246;2023-03-05T07:52:39;8.87;;;4.70;;
3573;SDS011;1801;51.050;6.246;2023-03-05T07:55:05;11.30;;;3.90;;
3573;SDS011;1801;51.050;6.246;2023-03-05T07:57:30;8.97;;;3.60;;
3573;SDS011;1801;51.050;6.246;2023-03-05T07:59:55;8.90;;;4.20;;
3573;SDS011;1801;51.050;6.246;2023-03-05T08:02:20;16.30;;;4.70;;
3573;SDS011;1801;51.050;6.246;2023-03-05T08:04:46;15.50;;;4.63;;
3573;SDS011;1801;51.050;6.246;2023-03-05T08:07:13;6.90;;;3.93;;
3573;SDS011;1801;51.050;6.246;2023-03-05T08:09:38;15.57;;;5.93;;
3573;SDS011;1801;51.050;6.246;2023-03-05T08:12:03;19.03;;;5.00;;
3573;SDS011;1801;51.050;6.246;2023-03-05T08:14:28;17.33;;;8.10;;
3573;SDS011;1801;51.050;6.246;2023-03-05T08:16:54;25.37;;;5.63;;
3573;SDS011;1801;51.050;6.246;2023-03-05T08:19:19;13.30;;;5.97;;
3573;SDS011;1801;51.050;6.246;2023-03-05T08:21:45;13.57;;;5.70;;
3573;SDS011;1801;51.050;6.246;2023-03-05T08:24:10;13.83;;;4.53;;
3573;SDS011;1801;51.050;6.246;2023-03-05T08:26:36;14.23;;;5.40;;
3573;SDS011;1801;51.050;6.246;2023-03-05T08:29:02;13.15;;;4.90;;
3573;SDS011;1801;51.050;6.246;2023-03-05T08:31:28;13.17;;;5.13;;
3573;SDS011;1801;51.050;6.246;2023-03-05T08:33:56;12.00;;;5.43;;
3573;SDS011;1801;51.050;6.246;2023-03-05T08:36:22;25.58;;;7.65;;
3573;SDS011;1801;51.050;6.246;2023-03-05T08:38:47;10.97;;;6.47;;
3573;SDS011;1801;51.050;6.246;2023-03-05T08:41:13;18.07;;;5.90;;
3573;SDS011;1801;51.050;6.246;2023-03-05T08:43:38;17.70;;;5.17;;
3573;SDS011;1801;51.050;6.246;2023-03-05T08:46:04;16.97;;;6.20;;
3573;SDS011;1801;51.050;6.246;2023-03-05T08:48:29;17.00;;;7.20;;
3573;SDS011;1801;51.050;6.246;2023-03-05T08:50:55;15.30;;;5.97;;
3573;SDS011;1801;51.050;6.246;2023-03-05T08:53:21;13.97;;;5.63;;
3573;SDS011;1801;51.050;6.246;2023-03-05T08:55:55;17.53;;;5.60;;
3573;SDS011;1801;51.050;6.246;2023-03-05T08:58:20;17.25;;;5.85;;
3573;SDS011;1801;51.050;6.246;2023-03-05T09:00:46;19.37;;;6.50;;
3573;SDS011;1801;51.050;6.246;2023-03-05T09:03:11;12.80;;;7.23;;
3573;SDS011;1801;51.050;6.246;2023-03-05T09:05:36;10.90;;;5.33;;
3573;SDS011;1801;51.050;6.246;2023-03-05T09:08:01;17.63;;;5.07;;
3573;SDS011;1801;51.050;6.246;2023-03-05T09:10:26;12.33;;;6.57;;
3573;SDS011;1801;51.050;6.246;2023-03-05T09:12:52;12.40;;;6.90;;
3573;SDS011;1801;51.050;6.246;2023-03-05T09:15:17;13.00;;;6.77;;
3573;SDS011;1801;51.050;6.246;2023-03-05T09:17:42;14.60;;;6.57;;
3573;SDS011;1801;51.050;6.246;2023-03-05T09:20:09;16.03;;;6.30;;
3573;SDS011;1801;51.050;6.246;2023-03-05T09:22:35;5.90;;;3.15;;
3573;SDS011;1801;51.050;6.246;2023-03-05T09:25:00;13.33;;;4.87;;
3573;SDS011;1801;51.050;6.246;2023-03-05T09:27:25;9.23;;;5.80;;
3573;SDS011;1801;51.050;6.246;2023-03-05T09:29:50;11.23;;;6.27;;
3573;SDS011;1801;51.050;6.246;2023-03-05T09:32:17;15.18;;;7.13;;
3573;SDS011;1801;51.050;6.246;2023-03-05T09:34:42;13.97;;;7.00;;
3573;SDS011;1801;51.050;6.246;2023-03-05T09:37:07;21.67;;;7.47;;
3573;SDS011;1801;51.050;6.246;2023-03-05T09:39:32;19.37;;;7.97;;
3573;SDS011;1801;51.050;6.246;2023-03-05T09:47:15;16.65;;;7.47;;
3573;SDS011;1801;51.050;6.246;2023-03-05T09:49:46;20.05;;;7.20;;
3573;SDS011;1801;51.050;6.246;2023-03-05T09:52:17;21.00;;;7.97;;
3573;SDS011;1801;51.050;6.246;2023-03-05T09:54:44;18.67;;;9.02;;
3573;SDS011;1801;51.050;6.246;2023-03-05T09:57:16;23.27;;;9.27;;
3573;SDS011;1801;51.050;6.246;2023-03-05T09:59:46;12.57;;;7.18;;
3573;SDS011;1801;51.050;6.246;2023-03-05T10:02:35;14.82;;;6.75;;
3573;SDS011;1801;51.050;6.246;2023-03-05T10:09:59;20.48;;;7.25;;
3573;SDS011;1801;51.050;6.246;2023-03-05T10:14:57;18.13;;;8.90;;
3573;SDS011;1801;51.050;6.246;2023-03-05T10:28:08;22.20;;;9.88;;
3573;SDS011;1801;51.050;6.246;2023-03-05T10:30:43;25.08;;;9.88;;
3573;SDS011;1801;51.050;6.246;2023-03-05T10:33:16;18.75;;;8.30;;
3573;SDS011;1801;51.050;6.246;2023-03-05T10:38:20;26.40;;;11.70;;
3573;SDS011;1801;51.050;6.246;2023-03-05T10:40:56;20.15;;;10.60;;
3573;SDS011;1801;51.050;6.246;2023-03-05T10:46:08;21.52;;;10.40;;
3573;SDS011;1801;51.050;6.246;2023-03-05T10:48:56;23.67;;;12.80;;
3573;SDS011;1801;51.050;6.246;2023-03-05T10:51:32;19.25;;;10.68;;
3573;SDS011;1801;51.050;6.246;2023-03-05T10:54:01;30.35;;;12.07;;
3573;SDS011;1801;51.050;6.246;2023-03-05T10:56:28;26.35;;;12.75;;
3573;SDS011;1801;51.050;6.246;2023-03-05T10:58:56;19.63;;;9.65;;
3573;SDS011;1801;51.050;6.246;2023-03-05T11:01:27;22.40;;;12.27;;
3573;SDS011;1801;51.050;6.246;2023-03-05T11:03:55;16.05;;;8.93;;
3573;SDS011;1801;51.050;6.246;2023-03-05T11:06:28;20.13;;;9.88;;
3573;SDS011;1801;51.050;6.246;2023-03-05T11:08:53;22.40;;;11.95;;
3573;SDS011;1801;51.050;6.246;2023-03-05T11:11:19;20.90;;;9.60;;
3573;SDS011;1801;51.050;6.246;2023-03-05T11:16:23;18.80;;;8.82;;
3573;SDS011;1801;51.050;6.246;2023-03-05T11:18:48;24.33;;;11.55;;
3573;SDS011;1801;51.050;6.246;2023-03-05T11:21:18;18.47;;;10.57;;
3573;SDS011;1801;51.050;6.246;2023-03-05T11:23:55;16.90;;;9.10;;
3573;SDS011;1801;51.050;6.246;2023-03-05T11:26:27;26.10;;;8.38;;
3573;SDS011;1801;51.050;6.246;2023-03-05T11:34:43;13.73;;;7.90;;
3573;SDS011;1801;51.050;6.246;2023-03-05T11:36:39;11.23;;;7.28;;
3573;SDS011;1801;51.050;6.246;2023-03-05T11:41:38;14.33;;;7.43;;
3573;SDS011;1801;51.050;6.246;2023-03-05T11:44:09;14.18;;;6.10;;
3573;SDS011;1801;51.050;6.246;2023-03-05T11:46:37;14.93;;;7.50;;
3573;SDS011;1801;51.050;6.246;2023-03-05T11:49:04;9.95;;;4.90;;
3573;SDS011;1801;51.050;6.246;2023-03-05T11:51:39;9.77;;;6.50;;
3573;SDS011;1801;51.050;6.246;2023-03-05T11:54:06;11.27;;;4.80;;
3573;SDS011;1801;51.050;6.246;2023-03-05T11:56:33;14.70;;;6.63;;
3573;SDS011;1801;51.050;6.246;2023-03-05T11:59:04;13.05;;;5.22;;
3573;SDS011;1801;51.050;6.246;2023-03-05T12:01:32;9.80;;;6.18;;
3573;SDS011;1801;51.050;6.246;2023-03-05T12:03:58;12.05;;;5.85;;
3573;SDS011;1801;51.050;6.246;2023-03-05T12:09:03;8.80;;;4.75;;
3573;SDS011;1801;51.050;6.246;2023-03-05T12:11:30;10.70;;;5.72;;
3573;SDS011;1801;51.050;6.246;2023-03-05T12:21:43;8.32;;;4.53;;
3573;SDS011;1801;51.050;6.246;2023-03-05T12:29:29;16.50;;;4.70;;
3573;SDS011;1801;51.050;6.246;2023-03-05T12:32:02;6.43;;;4.55;;
3573;SDS011;1801;51.050;6.246;2023-03-05T12:37:11;8.32;;;4.25;;
3573;SDS011;1801;51.050;6.246;2023-03-05T12:39:44;11.30;;;3.85;;
3573;SDS011;1801;51.050;6.246;2023-03-05T12:47:39;6.25;;;3.70;;
3573;SDS011;1801;51.050;6.246;2023-03-05T12:50:07;6.05;;;4.60;;
3573;SDS011;1801;51.050;6.246;2023-03-05T12:52:49;6.70;;;3.78;;
3573;SDS011;1801;51.050;6.246;2023-03-05T12:55:22;8.43;;;4.53;;
3573;SDS011;1801;51.050;6.246;2023-03-05T12:57:57;10.98;;;4.40;;
3573;SDS011;1801;51.050;6.246;2023-03-05T13:00:28;7.35;;;5.05;;
3573;SDS011;1801;51.050;6.246;2023-03-05T13:02:58;5.80;;;4.40;;
3573;SDS011;1801;51.050;6.246;2023-03-05T13:05:31;8.90;;;4.65;;
3573;SDS011;1801;51.050;6.246;2023-03-05T13:10:41;8.55;;;5.38;;
3573;SDS011;1801;51.050;6.246;2023-03-05T13:13:10;7.60;;;5.40;;
3573;SDS011;1801;51.050;6.246;2023-03-05T13:15:36;6.38;;;4.93;;
3573;SDS011;1801;51.050;6.246;2023-03-05T13:18:01;10.83;;;4.57;;
3573;SDS011;1801;51.050;6.246;2023-03-05T13:20:32;12.25;;;5.32;;
3573;SDS011;1801;51.050;6.246;2023-03-05T13:23:04;8.23;;;5.38;;
3573;SDS011;1801;51.050;6.246;2023-03-05T13:25:34;8.40;;;4.50;;
3573;SDS011;1801;51.050;6.246;2023-03-05T13:28:03;11.40;;;5.40;;
3573;SDS011;1801;51.050;6.246;2023-03-05T13:30:29;8.90;;;4.95;;
3573;SDS011;1801;51.050;6.246;2023-03-05T13:32:56;18.90;;;5.60;;
3573;SDS011;1801;51.050;6.246;2023-03-05T13:35:23;11.68;;;5.65;;
3573;SDS011;1801;51.050;6.246;2023-03-05T13:37:48;10.50;;;5.47;;
3573;SDS011;1801;51.050;6.246;2023-03-05T13:40:18;12.03;;;6.17;;
3573;SDS011;1801;51.050;6.246;2023-03-05T13:42:43;15.68;;;6.80;;
3573;SDS011;1801;51.050;6.246;2023-03-05T13:50:21;11.35;;;6.45;;
3573;SDS011;1801;51.050;6.246;2023-03-05T13:52:47;12.23;;;6.05;;
3573;SDS011;1801;51.050;6.246;2023-03-05T13:55:13;11.87;;;6.23;;
3573;SDS011;1801;51.050;6.246;2023-03-05T13:57:41;22.05;;;7.28;;
3573;SDS011;1801;51.050;6.246;2023-03-05T14:01:00;9.63;;;6.50;;
3573;SDS011;1801;51.050;6.246;2023-03-05T14:02:53;10.15;;;7.43;;
3573;SDS011;1801;51.050;6.246;2023-03-05T14:05:18;15.63;;;6.05;;
3573;SDS011;1801;51.050;6.246;2023-03-05T14:07:46;10.63;;;6.60;;
3573;SDS011;1801;51.050;6.246;2023-03-05T14:12:56;12.15;;;7.55;;
3573;SDS011;1801;51.050;6.246;2023-03-05T14:15:22;11.93;;;7.23;;
3573;SDS011;1801;51.050;6.246;2023-03-05T14:17:48;14.63;;;7.32;;
3573;SDS011;1801;51.050;6.246;2023-03-05T14:20:28;11.40;;;7.50;;
3573;SDS011;1801;51.050;6.246;2023-03-05T14:22:58;17.05;;;6.78;;
3573;SDS011;1801;51.050;6.246;2023-03-05T14:25:36;13.73;;;7.13;;
3573;SDS011;1801;51.050;6.246;2023-03-05T14:28:26;14.75;;;8.07;;
3573;SDS011;1801;51.050;6.246;2023-03-05T14:30:49;13.88;;;7.47;;
3573;SDS011;1801;51.050;6.246;2023-03-05T14:35:48;12.27;;;7.60;;
3573;SDS011;1801;51.050;6.246;2023-03-05T14:38:23;16.73;;;8.13;;
3573;SDS011;1801;51.050;6.246;2023-03-05T14:40:50;11.30;;;7.30;;
3573;SDS011;1801;51.050;6.246;2023-03-05T14:43:15;18.33;;;8.03;;
3573;SDS011;1801;51.050;6.246;2023-03-05T14:45:41;12.87;;;7.57;;
3573;SDS011;1801;51.050;6.246;2023-03-05T14:48:08;16.98;;;9.77;;
3573;SDS011;1801;51.050;6.246;2023-03-05T14:50:35;15.30;;;8.70;;
3573;SDS011;1801;51.050;6.246;2023-03-05T14:53:07;19.17;;;8.73;;
3573;SDS011;1801;51.050;6.246;2023-03-05T14:55:33;16.33;;;8.20;;
3573;SDS011;1801;51.050;6.246;2023-03-05T15:00:36;15.73;;;7.20;;
3573;SDS011;1801;51.050;6.246;2023-03-05T15:03:02;13.57;;;7.90;;
3573;SDS011;1801;51.050;6.246;2023-03-05T15:05:27;17.20;;;7.50;;
3573;SDS011;1801;51.050;6.246;2023-03-05T15:07:52;16.63;;;7.43;;
3573;SDS011;1801;51.050;6.246;2023-03-05T15:10:19;17.00;;;9.13;;
3573;SDS011;1801;51.050;6.246;2023-03-05T15:12:45;17.88;;;6.60;;
3573;SDS011;1801;51.050;6.246;2023-03-05T15:15:14;14.90;;;7.00;;
3573;SDS011;1801;51.050;6.246;2023-03-05T15:17:40;14.95;;;7.97;;
3573;SDS011;1801;51.050;6.246;2023-03-05T15:20:07;11.68;;;7.30;;
3573;SDS011;1801;51.050;6.246;2023-03-05T15:22:35;11.77;;;5.47;;
3573;SDS011;1801;51.050;6.246;2023-03-05T15:25:00;13.07;;;6.47;;
3573;SDS011;1801;51.050;6.246;2023-03-05T15:27:25;13.27;;;7.73;;
3573;SDS011;1801;51.050;6.246;2023-03-05T15:29:51;14.93;;;7.47;;
3573;SDS011;1801;51.050;6.246;2023-03-05T15:32:16;11.73;;;7.70;;
3573;SDS011;1801;51.050;6.246;2023-03-05T15:34:41;14.50;;;7.23;;
3573;SDS011;1801;51.050;6.246;2023-03-05T15:37:06;14.23;;;6.40;;
3573;SDS011;1801;51.050;6.246;2023-03-05T15:39:31;11.27;;;6.40;;
3573;SDS011;1801;51.050;6.246;2023-03-05T15:41:57;12.90;;;6.90;;
3573;SDS011;1801;51.050;6.246;2023-03-05T15:44:22;15.27;;;7.47;;
3573;SDS011;1801;51.050;6.246;2023-03-05T15:46:47;14.63;;;6.07;;
3573;SDS011;1801;51.050;6.246;2023-03-05T15:49:12;14.23;;;6.80;;
3573;SDS011;1801;51.050;6.246;2023-03-05T15:51:38;13.17;;;7.47;;
3573;SDS011;1801;51.050;6.246;2023-03-05T15:54:03;11.80;;;7.03;;
3573;SDS011;1801;51.050;6.246;2023-03-05T15:56:28;12.83;;;6.33;;
3573;SDS011;1801;51.050;6.246;2023-03-05T15:58:53;17.63;;;8.70;;
3573;SDS011;1801;51.050;6.246;2023-03-05T16:01:19;14.00;;;7.30;;
3573;SDS011;1801;51.050;6.246;2023-03-05T16:03:45;15.30;;;7.90;;
3573;SDS011;1801;51.050;6.246;2023-03-05T16:06:10;13.40;;;8.03;;
3573;SDS011;1801;51.050;6.246;2023-03-05T16:08:36;11.98;;;7.43;;
3573;SDS011;1801;51.050;6.246;2023-03-05T16:11:02;9.30;;;5.57;;
3573;SDS011;1801;51.050;6.246;2023-03-05T16:13:27;11.60;;;6.70;;
3573;SDS011;1801;51.050;6.246;2023-03-05T16:15:54;9.15;;;4.95;;
3573;SDS011;1801;51.050;6.246;2023-03-05T16:18:19;8.40;;;5.33;;
3573;SDS011;1801;51.050;6.246;2023-03-05T16:20:45;6.03;;;4.60;;
3573;SDS011;1801;51.050;6.246;2023-03-05T16:23:11;7.15;;;5.10;;
3573;SDS011;1801;51.050;6.246;2023-03-05T16:25:36;9.80;;;5.30;;
3573;SDS011;1801;51.050;6.246;2023-03-05T16:28:02;7.87;;;4.20;;